Time;durP1;ratioP1;P1;durP2;ratioP2;P2;SDS_P1;SDS_P2;PMS_P1;PMS_P2;Temp;Humidity;BMP_temperature;BMP_pressure;BME280_temperature;BME280_humidity;BME280_pressure;Samples;Min_cycle;Max_cycle;Signal;HPM_P1;HPM_P2
2023/09/27 00:01:49;;;;;;;37.37;21.50;;;;;;;;;;5097421;28;20039;-67
2023/09/27 00:04:14;;;;;;;35.80;21.23;;;;;;;;;;5100241;28;20093;-67
2023/09/27 00:06:39;;;;;;;34.67;22.00;;;;;;;;;;5096521;28;20489;-67
2023/09/27 00:09:04;;;;;;;32.33;19.93;;;;;;;;;;5091128;28;20422;-66
2023/09/27 00:11:30;;;;;;;28.10;17.87;;;;;;;;;;5091033;28;20032;-66
2023/09/27 00:13:55;;;;;;;36.00;18.90;;;;;;;;;;5091055;28;20141;-66
2023/09/27 00:16:20;;;;;;;40.37;23.97;;;;;;;;;;5090483;28;20024;-66
2023/09/27 00:18:46;;;;;;;33.97;21.10;;;;;;;;;;5086852;28;20020;-66
2023/09/27 00:21:11;;;;;;;35.87;20.90;;;;;;;;;;5092768;28;20060;-66
2023/09/27 00:23:36;;;;;;;38.30;23.40;;;;;;;;;;5090367;28;20027;-66
2023/09/27 00:26:01;;;;;;;40.60;22.40;;;;;;;;;;5092911;28;20020;-66
2023/09/27 00:28:27;;;;;;;41.83;22.37;;;;;;;;;;5087735;28;20028;-67
2023/09/27 00:30:52;;;;;;;42.77;24.57;;;;;;;;;;5092434;28;20078;-67
2023/09/27 00:33:17;;;;;;;50.63;28.63;;;;;;;;;;5100234;28;20024;-67
2023/09/27 00:35:47;;;;;;;60.57;31.37;;;;;;;;;;5088346;28;20027;-66
2023/09/27 00:38:12;;;;;;;60.33;30.00;;;;;;;;;;5100245;28;20027;-67
2023/09/27 00:40:43;;;;;;;61.00;30.20;;;;;;;;;;5090586;28;20020;-67
2023/09/27 00:43:08;;;;;;;55.47;28.77;;;;;;;;;;5089682;28;20020;-67
2023/09/27 00:45:33;;;;;;;55.50;28.50;;;;;;;;;;5090142;28;20069;-67
2023/09/27 00:47:58;;;;;;;54.67;29.53;;;;;;;;;;5096450;28;20032;-67
2023/09/27 00:50:24;;;;;;;49.87;27.27;;;;;;;;;;5095145;28;20016;-67
2023/09/27 00:52:50;;;;;;;48.77;26.27;;;;;;;;;;5097462;28;20413;-66
2023/09/27 00:55:17;;;;;;;47.17;25.23;;;;;;;;;;5114886;28;20030;-66
2023/09/27 00:57:42;;;;;;;48.57;25.43;;;;;;;;;;5091428;28;20016;-67
2023/09/27 01:03:11;;;;;;;42.93;23.43;;;;;;;;;;5087728;28;20094;-66
2023/09/27 01:05:36;;;;;;;47.00;25.30;;;;;;;;;;5086993;28;20024;-66
2023/09/27 01:08:01;;;;;;;45.43;23.63;;;;;;;;;;5089491;28;20044;-66
2023/09/27 01:10:26;;;;;;;49.33;25.33;;;;;;;;;;5100126;28;20475;-66
2023/09/27 01:12:52;;;;;;;51.40;26.47;;;;;;;;;;5098837;28;20103;-66
2023/09/27 01:15:17;;;;;;;54.43;26.47;;;;;;;;;;5097655;28;20012;-66
2023/09/27 01:17:52;;;;;;;51.47;25.63;;;;;;;;;;5095801;28;20020;-67
2023/09/27 01:20:17;;;;;;;42.30;22.27;;;;;;;;;;5093959;28;20432;-66
2023/09/27 01:22:43;;;;;;;43.47;22.90;;;;;;;;;;5102720;28;20055;-66
2023/09/27 01:25:11;;;;;;;47.07;23.00;;;;;;;;;;5111845;28;20028;-66
2023/09/27 01:27:37;;;;;;;52.07;27.27;;;;;;;;;;5100218;28;20372;-66
2023/09/27 01:30:05;;;;;;;60.87;29.53;;;;;;;;;;5094070;28;20024;-66
2023/09/27 01:32:30;;;;;;;60.60;29.47;;;;;;;;;;5094824;28;20024;-67
2023/09/27 01:34:56;;;;;;;64.37;29.50;;;;;;;;;;5103960;28;20148;-67
2023/09/27 01:37:21;;;;;;;60.97;29.83;;;;;;;;;;5093432;28;20012;-67
2023/09/27 01:39:46;;;;;;;49.30;24.93;;;;;;;;;;5090256;28;20073;-67
2023/09/27 01:42:12;;;;;;;49.60;24.70;;;;;;;;;;5095368;28;20024;-67
2023/09/27 01:44:37;;;;;;;49.37;24.07;;;;;;;;;;5102861;28;20102;-67
2023/09/27 01:47:03;;;;;;;46.47;23.23;;;;;;;;;;5100483;28;20413;-67
2023/09/27 01:49:28;;;;;;;55.47;27.50;;;;;;;;;;5094416;28;20439;-67
2023/09/27 01:51:54;;;;;;;69.37;30.87;;;;;;;;;;5092028;28;20027;-68
2023/09/27 01:54:19;;;;;;;70.17;31.33;;;;;;;;;;5092642;28;20031;-67
2023/09/27 01:56:44;;;;;;;80.03;34.00;;;;;;;;;;5088877;28;20020;-67
2023/09/27 01:59:10;;;;;;;78.37;34.20;;;;;;;;;;5089399;28;20020;-67
2023/09/27 02:01:35;;;;;;;80.00;35.47;;;;;;;;;;5090964;28;20017;-67
2023/09/27 02:04:00;;;;;;;82.23;35.27;;;;;;;;;;5091930;28;20116;-67
2023/09/27 02:06:25;;;;;;;74.53;32.53;;;;;;;;;;5094779;28;20074;-67
2023/09/27 02:08:51;;;;;;;74.23;31.53;;;;;;;;;;5085032;28;20138;-67
2023/09/27 02:11:18;;;;;;;55.73;27.40;;;;;;;;;;5093934;28;20034;-66
2023/09/27 02:13:43;;;;;;;77.93;32.77;;;;;;;;;;5091687;28;20031;-63
2023/09/27 02:16:08;;;;;;;68.83;30.80;;;;;;;;;;5093048;28;20426;-63
2023/09/27 02:18:33;;;;;;;94.10;33.77;;;;;;;;;;5087766;28;20028;-62
2023/09/27 02:20:59;;;;;;;62.90;27.87;;;;;;;;;;5096606;28;20107;-62
2023/09/27 02:23:24;;;;;;;62.77;28.10;;;;;;;;;;5091335;28;20020;-62
2023/09/27 02:25:58;;;;;;;60.27;28.07;;;;;;;;;;5113914;28;20027;-62
2023/09/27 02:28:24;;;;;;;65.73;29.87;;;;;;;;;;5102840;28;20041;-62
2023/09/27 02:30:49;;;;;;;79.83;32.37;;;;;;;;;;5106780;28;20428;-62
2023/09/27 02:33:14;;;;;;;77.37;31.53;;;;;;;;;;5105206;28;20060;-60
2023/09/27 02:35:41;;;;;;;76.67;31.07;;;;;;;;;;5093805;28;20016;-62
2023/09/27 02:38:06;;;;;;;69.30;30.40;;;;;;;;;;5091844;28;20358;-60
2023/09/27 02:40:31;;;;;;;70.10;30.70;;;;;;;;;;5091191;28;20027;-60
2023/09/27 02:42:57;;;;;;;67.53;29.47;;;;;;;;;;5093491;28;20456;-61
2023/09/27 02:45:22;;;;;;;78.93;31.83;;;;;;;;;;5103509;28;20488;-61
2023/09/27 02:47:47;;;;;;;83.83;33.43;;;;;;;;;;5101548;28;20392;-61
2023/09/27 02:50:13;;;;;;;73.33;29.60;;;;;;;;;;5091648;28;20495;-61
2023/09/27 02:52:39;;;;;;;82.40;32.23;;;;;;;;;;5087721;28;20063;-61
2023/09/27 02:55:05;;;;;;;76.30;32.37;;;;;;;;;;5094290;28;20045;-61
2023/09/27 02:57:30;;;;;;;70.07;28.07;;;;;;;;;;5090375;28;20020;-61
2023/09/27 02:59:55;;;;;;;64.90;28.67;;;;;;;;;;5085840;28;20023;-61
2023/09/27 03:02:21;;;;;;;70.47;29.43;;;;;;;;;;5094047;28;20107;-61
2023/09/27 03:04:47;;;;;;;78.67;30.33;;;;;;;;;;5092551;28;20052;-61
2023/09/27 03:07:14;;;;;;;90.33;35.43;;;;;;;;;;5087311;28;20464;-62
2023/09/27 03:09:39;;;;;;;66.53;29.63;;;;;;;;;;5091427;28;20379;-62
2023/09/27 03:12:05;;;;;;;80.00;31.17;;;;;;;;;;5087776;28;20111;-64
2023/09/27 03:14:30;;;;;;;83.53;34.10;;;;;;;;;;5099484;28;20486;-66
2023/09/27 03:16:56;;;;;;;95.13;37.17;;;;;;;;;;5092305;28;20012;-68
2023/09/27 03:19:22;;;;;;;100.30;37.83;;;;;;;;;;5088507;28;20016;-67
2023/09/27 03:21:47;;;;;;;99.23;38.27;;;;;;;;;;5094628;28;20012;-68
2023/09/27 03:24:12;;;;;;;112.30;42.93;;;;;;;;;;5093497;28;20024;-67
2023/09/27 03:26:37;;;;;;;90.70;38.20;;;;;;;;;;5091171;28;20112;-67
2023/09/27 03:29:04;;;;;;;94.87;38.23;;;;;;;;;;5084059;28;20047;-67
2023/09/27 03:31:30;;;;;;;95.07;39.43;;;;;;;;;;5094940;28;20379;-66
2023/09/27 03:33:55;;;;;;;82.27;34.30;;;;;;;;;;5099858;28;20016;-66
2023/09/27 03:36:20;;;;;;;83.67;34.33;;;;;;;;;;5095650;28;20016;-67
2023/09/27 03:38:48;;;;;;;83.77;34.43;;;;;;;;;;5093754;28;20016;-67
2023/09/27 03:41:13;;;;;;;85.00;33.30;;;;;;;;;;5091358;28;20012;-66
2023/09/27 03:43:39;;;;;;;86.93;34.90;;;;;;;;;;5088586;28;20032;-66
2023/09/27 03:46:04;;;;;;;90.03;35.13;;;;;;;;;;5088080;28;20027;-66
2023/09/27 03:48:32;;;;;;;85.73;33.63;;;;;;;;;;5090655;28;20502;-66
2023/09/27 03:50:58;;;;;;;74.83;31.73;;;;;;;;;;5093129;28;20012;-66
2023/09/27 03:53:24;;;;;;;72.33;31.73;;;;;;;;;;5091231;28;20462;-66
2023/09/27 03:55:49;;;;;;;101.13;38.83;;;;;;;;;;5090689;28;20065;-66
2023/09/27 03:58:14;;;;;;;93.50;37.03;;;;;;;;;;5100742;28;20039;-66
2023/09/27 04:00:39;;;;;;;97.57;37.33;;;;;;;;;;5078441;28;20066;-68
2023/09/27 04:03:04;;;;;;;96.70;38.10;;;;;;;;;;5091331;28;20036;-67
2023/09/27 04:05:30;;;;;;;89.10;35.10;;;;;;;;;;5088892;28;20368;-67
2023/09/27 04:07:55;;;;;;;84.13;33.93;;;;;;;;;;5087011;28;20090;-67
2023/09/27 04:10:21;;;;;;;97.97;37.40;;;;;;;;;;5090603;28;20017;-67
2023/09/27 04:12:47;;;;;;;73.53;30.40;;;;;;;;;;5094134;28;20406;-67
2023/09/27 04:15:12;;;;;;;62.60;27.80;;;;;;;;;;5095488;28;20021;-67
2023/09/27 04:17:38;;;;;;;72.77;29.57;;;;;;;;;;5096621;28;20012;-67
2023/09/27 04:20:11;;;;;;;67.37;29.90;;;;;;;;;;5089585;28;20095;-67
2023/09/27 04:22:36;;;;;;;69.33;28.73;;;;;;;;;;5092386;28;20028;-66
2023/09/27 04:25:02;;;;;;;65.03;27.33;;;;;;;;;;5097183;28;20593;-62
2023/09/27 04:27:28;;;;;;;91.80;32.03;;;;;;;;;;5095854;28;20529;-63
2023/09/27 04:29:53;;;;;;;93.90;34.67;;;;;;;;;;5098676;28;20019;-60
2023/09/27 04:32:19;;;;;;;96.17;35.27;;;;;;;;;;5094883;28;20024;-62
2023/09/27 04:34:44;;;;;;;107.03;36.73;;;;;;;;;;5092424;28;20026;-63
2023/09/27 04:37:09;;;;;;;94.07;35.07;;;;;;;;;;5104673;28;20020;-60
2023/09/27 04:39:35;;;;;;;97.53;36.10;;;;;;;;;;5093611;28;20561;-62
2023/09/27 04:42:00;;;;;;;84.27;32.17;;;;;;;;;;5096684;28;20048;-62
2023/09/27 04:44:25;;;;;;;105.93;38.37;;;;;;;;;;5094830;28;20027;-63
2023/09/27 04:46:50;;;;;;;109.73;40.37;;;;;;;;;;5094007;28;20012;-62
2023/09/27 04:49:15;;;;;;;127.60;43.87;;;;;;;;;;5094063;28;20086;-62
2023/09/27 04:51:41;;;;;;;128.20;45.00;;;;;;;;;;5094259;28;20020;-63
2023/09/27 04:54:07;;;;;;;140.07;48.93;;;;;;;;;;5095812;28;20020;-63
2023/09/27 04:56:32;;;;;;;139.23;48.60;;;;;;;;;;5096549;28;20020;-62
2023/09/27 04:58:58;;;;;;;143.20;48.83;;;;;;;;;;5090147;28;20477;-63
2023/09/27 05:01:24;;;;;;;167.33;55.70;;;;;;;;;;5094373;28;20456;-61
2023/09/27 05:03:49;;;;;;;173.60;55.33;;;;;;;;;;5089178;28;20055;-61
2023/09/27 05:06:15;;;;;;;167.67;53.47;;;;;;;;;;5091019;28;20023;-61
2023/09/27 05:08:40;;;;;;;155.40;52.10;;;;;;;;;;5093077;28;20024;-61
2023/09/27 05:11:05;;;;;;;156.57;52.07;;;;;;;;;;5095552;28;20050;-62
2023/09/27 05:13:31;;;;;;;169.43;53.70;;;;;;;;;;5099070;28;20072;-61
2023/09/27 05:15:59;;;;;;;148.23;50.93;;;;;;;;;;5087377;28;20430;-63
2023/09/27 05:18:24;;;;;;;152.87;52.50;;;;;;;;;;5101352;28;20024;-62
2023/09/27 05:20:50;;;;;;;135.93;49.40;;;;;;;;;;5089850;28;20020;-61
2023/09/27 05:23:15;;;;;;;135.17;47.07;;;;;;;;;;5096448;28;20040;-62
2023/09/27 05:25:40;;;;;;;88.17;35.77;;;;;;;;;;5091891;28;20488;-62
2023/09/27 05:28:06;;;;;;;108.47;42.50;;;;;;;;;;5095142;28;20375;-61
2023/09/27 05:30:31;;;;;;;127.80;46.50;;;;;;;;;;5102227;28;20024;-61
2023/09/27 05:32:56;;;;;;;127.47;47.30;;;;;;;;;;5095617;28;20078;-61
2023/09/27 05:35:22;;;;;;;130.10;45.73;;;;;;;;;;5095360;28;20020;-62
2023/09/27 05:37:47;;;;;;;83.87;36.00;;;;;;;;;;5095549;28;20020;-62
2023/09/27 05:40:12;;;;;;;77.53;32.53;;;;;;;;;;5095085;28;20085;-63
2023/09/27 05:42:38;;;;;;;76.80;33.97;;;;;;;;;;5091845;28;20388;-62
2023/09/27 05:45:04;;;;;;;78.43;34.40;;;;;;;;;;5109351;28;20774;-66
2023/09/27 05:47:29;;;;;;;76.07;33.07;;;;;;;;;;5093106;28;20031;-65
2023/09/27 05:49:55;;;;;;;87.63;37.57;;;;;;;;;;5091466;28;20024;-66
2023/09/27 05:52:20;;;;;;;84.57;38.50;;;;;;;;;;5090785;28;20032;-65
2023/09/27 05:54:46;;;;;;;65.37;35.20;;;;;;;;;;5089198;28;20066;-65
2023/09/27 05:57:11;;;;;;;53.20;30.67;;;;;;;;;;5093717;28;20025;-65
2023/09/27 05:59:40;;;;;;;41.33;26.13;;;;;;;;;;5089075;28;20020;-65
2023/09/27 06:02:06;;;;;;;29.53;20.90;;;;;;;;;;5086292;28;20026;-66
2023/09/27 06:04:31;;;;;;;29.00;20.17;;;;;;;;;;5088367;28;20492;-64
2023/09/27 06:06:58;;;;;;;25.67;17.95;;;;;;;;;;5092295;28;20081;-65
2023/09/27 06:09:23;;;;;;;22.60;16.45;;;;;;;;;;5088931;28;20067;-64
2023/09/27 06:11:49;;;;;;;21.67;14.55;;;;;;;;;;5088225;28;20028;-64
2023/09/27 06:14:14;;;;;;;18.58;12.65;;;;;;;;;;5074010;28;20025;-63
2023/09/27 06:16:40;;;;;;;21.08;10.85;;;;;;;;;;5092634;28;20384;-63
2023/09/27 06:19:05;;;;;;;20.75;11.40;;;;;;;;;;5094355;28;20090;-63
2023/09/27 06:21:31;;;;;;;14.98;10.40;;;;;;;;;;5090922;28;20023;-63
2023/09/27 06:23:56;;;;;;;17.83;10.63;;;;;;;;;;5078919;28;20468;-63
2023/09/27 06:26:21;;;;;;;12.88;9.93;;;;;;;;;;5093974;28;20074;-63
2023/09/27 06:28:46;;;;;;;13.30;9.38;;;;;;;;;;5099395;28;20030;-64
2023/09/27 06:31:13;;;;;;;11.45;8.13;;;;;;;;;;5089158;28;20073;-64
2023/09/27 06:33:39;;;;;;;13.02;8.52;;;;;;;;;;5079839;28;20028;-64
2023/09/27 06:36:06;;;;;;;11.73;9.13;;;;;;;;;;5087765;28;20039;-65
2023/09/27 06:38:31;;;;;;;12.50;8.80;;;;;;;;;;5093732;28;20073;-65
2023/09/27 06:40:57;;;;;;;11.25;8.88;;;;;;;;;;5083118;28;20036;-62
2023/09/27 06:43:23;;;;;;;12.90;8.43;;;;;;;;;;5086170;28;20430;-62
2023/09/27 06:45:49;;;;;;;11.07;8.60;;;;;;;;;;5078455;28;20028;-63
2023/09/27 06:48:18;;;;;;;11.88;8.50;;;;;;;;;;5074772;28;20024;-63
2023/09/27 06:50:43;;;;;;;14.05;9.15;;;;;;;;;;5092470;28;20024;-64
2023/09/27 06:53:09;;;;;;;12.68;8.82;;;;;;;;;;5084128;28;20391;-64
2023/09/27 06:55:34;;;;;;;11.25;8.57;;;;;;;;;;5078492;28;20430;-64
2023/09/27 06:57:59;;;;;;;11.95;8.02;;;;;;;;;;5073692;28;20086;-64
2023/09/27 07:00:25;;;;;;;13.93;8.88;;;;;;;;;;5081115;28;20066;-64
2023/09/27 07:02:50;;;;;;;13.40;9.27;;;;;;;;;;5079812;28;20050;-64
2023/09/27 07:05:16;;;;;;;13.82;9.55;;;;;;;;;;5081642;28;20044;-64
2023/09/27 07:07:41;;;;;;;12.20;9.60;;;;;;;;;;5075694;28;20103;-64
2023/09/27 07:10:07;;;;;;;19.42;9.90;;;;;;;;;;5073814;28;20103;-64
2023/09/27 07:12:35;;;;;;;31.73;10.05;;;;;;;;;;5074907;28;20447;-64
2023/09/27 07:15:03;;;;;;;19.02;10.13;;;;;;;;;;5073333;28;20686;-64
2023/09/27 07:17:29;;;;;;;11.57;9.38;;;;;;;;;;5076509;28;20033;-65
2023/09/27 07:19:56;;;;;;;16.88;10.98;;;;;;;;;;5073079;28;20036;-63
2023/09/27 07:22:21;;;;;;;12.70;10.40;;;;;;;;;;5090980;28;20082;-64
2023/09/27 07:24:48;;;;;;;14.30;10.50;;;;;;;;;;5077095;28;20476;-60
2023/09/27 07:27:13;;;;;;;14.00;10.48;;;;;;;;;;5089452;28;20024;-59
2023/09/27 07:29:39;;;;;;;17.38;10.85;;;;;;;;;;5078419;28;20046;-58
2023/09/27 07:32:04;;;;;;;18.63;11.02;;;;;;;;;;5073074;28;20478;-59
2023/09/27 07:34:30;;;;;;;14.48;10.55;;;;;;;;;;5084459;28;20095;-64
2023/09/27 07:36:55;;;;;;;19.30;10.93;;;;;;;;;;5072910;28;20020;-64
2023/09/27 07:39:22;;;;;;;32.25;11.95;;;;;;;;;;5073392;28;20060;-63
2023/09/27 07:41:49;;;;;;;15.82;10.48;;;;;;;;;;5072727;28;20086;-63
2023/09/27 07:44:14;;;;;;;17.55;9.65;;;;;;;;;;5078735;28;20487;-63
2023/09/27 07:46:40;;;;;;;15.38;9.02;;;;;;;;;;5088676;28;20028;-63
2023/09/27 07:49:06;;;;;;;13.65;9.73;;;;;;;;;;5085597;28;20376;-62
2023/09/27 07:51:31;;;;;;;13.18;8.77;;;;;;;;;;5090612;28;20020;-63
2023/09/27 07:53:56;;;;;;;13.05;8.68;;;;;;;;;;5074130;28;20171;-65
2023/09/27 07:56:23;;;;;;;13.73;9.10;;;;;;;;;;5091316;28;20028;-62
2023/09/27 07:58:51;;;;;;;15.48;9.27;;;;;;;;;;5080369;28;20061;-61
2023/09/27 08:01:20;;;;;;;17.95;10.00;;;;;;;;;;5075286;28;20020;-59
2023/09/27 08:03:49;;;;;;;13.02;9.48;;;;;;;;;;5076923;28;20044;-59
2023/09/27 08:06:16;;;;;;;15.98;9.63;;;;;;;;;;5081121;28;20025;-61
2023/09/27 08:08:42;;;;;;;15.93;10.48;;;;;;;;;;5089945;28;20031;-60
2023/09/27 08:11:07;;;;;;;14.85;11.18;;;;;;;;;;5082289;28;20388;-60
2023/09/27 08:13:32;;;;;;;18.75;12.20;;;;;;;;;;5089602;28;20380;-61
2023/09/27 08:15:58;;;;;;;18.70;12.60;;;;;;;;;;5088479;28;20020;-61
2023/09/27 08:18:25;;;;;;;15.77;12.55;;;;;;;;;;5087906;28;20384;-61
2023/09/27 08:20:52;;;;;;;19.60;13.60;;;;;;;;;;5086245;28;20398;-61
2023/09/27 08:23:17;;;;;;;14.57;11.77;;;;;;;;;;5083789;28;20086;-66
2023/09/27 08:25:43;;;;;;;15.07;10.75;;;;;;;;;;5077469;28;20031;-65
2023/09/27 08:28:09;;;;;;;19.55;10.45;;;;;;;;;;5085015;28;20410;-66
2023/09/27 08:30:34;;;;;;;17.60;9.90;;;;;;;;;;5074313;28;20048;-66
2023/09/27 08:33:00;;;;;;;14.23;9.70;;;;;;;;;;5084077;28;20063;-66
2023/09/27 08:35:26;;;;;;;13.25;10.40;;;;;;;;;;5083045;28;20012;-61
2023/09/27 08:37:51;;;;;;;12.75;10.00;;;;;;;;;;5085210;28;20564;-60
2023/09/27 08:40:17;;;;;;;15.27;10.10;;;;;;;;;;5083550;28;20043;-61
2023/09/27 08:42:43;;;;;;;13.32;9.88;;;;;;;;;;5072434;28;20028;-61
2023/09/27 08:45:12;;;;;;;15.05;11.20;;;;;;;;;;5089647;28;20491;-61
2023/09/27 08:47:38;;;;;;;15.32;10.90;;;;;;;;;;5089091;28;20020;-62
2023/09/27 08:50:04;;;;;;;13.57;10.15;;;;;;;;;;5082214;28;20028;-61
2023/09/27 08:52:29;;;;;;;13.65;9.52;;;;;;;;;;5083746;28;20769;-60
2023/09/27 08:54:55;;;;;;;12.38;8.75;;;;;;;;;;5088101;28;20016;-62
2023/09/27 08:57:21;;;;;;;12.13;9.07;;;;;;;;;;5081828;28;20372;-61
2023/09/27 08:59:46;;;;;;;14.10;9.65;;;;;;;;;;5090297;28;20020;-61
2023/09/27 09:02:13;;;;;;;14.38;9.52;;;;;;;;;;5083618;28;20024;-62
2023/09/27 09:04:39;;;;;;;14.27;10.38;;;;;;;;;;5075458;28;20151;-63
2023/09/27 09:07:06;;;;;;;14.43;9.60;;;;;;;;;;5078409;28;20111;-62
2023/09/27 09:09:32;;;;;;;14.43;9.50;;;;;;;;;;5083054;28;20491;-62
2023/09/27 09:12:00;;;;;;;14.80;9.73;;;;;;;;;;5081846;28;20029;-62
2023/09/27 09:14:39;;;;;;;12.18;9.38;;;;;;;;;;5079125;28;20460;-61
2023/09/27 09:17:07;;;;;;;14.50;9.70;;;;;;;;;;5086180;28;20016;-65
2023/09/27 09:19:32;;;;;;;13.82;10.18;;;;;;;;;;5079440;28;20475;-65
2023/09/27 09:21:58;;;;;;;13.43;9.93;;;;;;;;;;5081669;28;20028;-66
2023/09/27 09:24:23;;;;;;;14.10;10.38;;;;;;;;;;5080838;28;20035;-66
2023/09/27 09:27:02;;;;;;;15.20;11.25;;;;;;;;;;5082812;28;20353;-66
2023/09/27 09:29:46;;;;;;;16.30;12.07;;;;;;;;;;5090946;28;20016;-66
2023/09/27 09:32:18;;;;;;;15.10;11.85;;;;;;;;;;5086797;28;20165;-66
2023/09/27 09:34:44;;;;;;;16.50;12.68;;;;;;;;;;5081540;28;20044;-67
2023/09/27 09:37:30;;;;;;;18.80;12.65;;;;;;;;;;5078946;28;20055;-66
2023/09/27 09:40:14;;;;;;;16.42;12.98;;;;;;;;;;5074296;28;20082;-65
2023/09/27 09:42:39;;;;;;;17.35;13.02;;;;;;;;;;5074606;28;20028;-65
2023/09/27 09:45:10;;;;;;;18.48;12.80;;;;;;;;;;5087539;28;20020;-65
2023/09/27 09:47:39;;;;;;;20.13;14.13;;;;;;;;;;5083985;28;20024;-65
2023/09/27 09:50:06;;;;;;;17.77;14.00;;;;;;;;;;5074790;28;20024;-66
2023/09/27 09:52:35;;;;;;;20.08;13.52;;;;;;;;;;5081821;28;20032;-65
2023/09/27 09:55:03;;;;;;;22.25;14.02;;;;;;;;;;5077345;28;20030;-65
2023/09/27 09:57:40;;;;;;;23.85;14.15;;;;;;;;;;5077277;28;20024;-66
2023/09/27 10:00:12;;;;;;;20.55;12.95;;;;;;;;;;5082514;28;20012;-65
2023/09/27 10:02:46;;;;;;;18.48;13.50;;;;;;;;;;5081382;28;20021;-66
2023/09/27 10:05:12;;;;;;;21.63;14.77;;;;;;;;;;5075153;28;20054;-65
2023/09/27 10:07:39;;;;;;;19.50;12.95;;;;;;;;;;5085375;28;20118;-66
2023/09/27 10:10:05;;;;;;;18.60;12.50;;;;;;;;;;5082238;28;20089;-65
2023/09/27 10:12:30;;;;;;;17.73;12.50;;;;;;;;;;5085041;28;20020;-66
2023/09/27 10:14:56;;;;;;;18.40;12.45;;;;;;;;;;5081119;28;20023;-66
2023/09/27 10:17:22;;;;;;;18.58;12.32;;;;;;;;;;5083862;28;20012;-66
2023/09/27 10:20:12;;;;;;;17.20;11.20;;;;;;;;;;5079583;28;20042;-67
2023/09/27 10:22:38;;;;;;;19.42;11.77;;;;;;;;;;5083000;28;20047;-67
2023/09/27 10:25:03;;;;;;;15.93;10.88;;;;;;;;;;5084961;28;20029;-63
2023/09/27 10:27:47;;;;;;;17.83;11.40;;;;;;;;;;5092411;28;20496;-62
2023/09/27 10:30:15;;;;;;;17.48;11.60;;;;;;;;;;5094134;28;20106;-63
2023/09/27 10:32:40;;;;;;;16.40;10.82;;;;;;;;;;5078013;28;20115;-63
2023/09/27 10:35:18;;;;;;;14.82;9.85;;;;;;;;;;5077921;28;20103;-63
2023/09/27 10:37:59;;;;;;;13.15;9.93;;;;;;;;;;5073313;28;20025;-62
2023/09/27 10:40:25;;;;;;;16.15;9.80;;;;;;;;;;5077292;28;20067;-62
2023/09/27 10:42:51;;;;;;;17.17;9.90;;;;;;;;;;5073684;28;20080;-62
2023/09/27 10:45:17;;;;;;;15.05;9.77;;;;;;;;;;5073794;28;20052;-63
2023/09/27 10:47:42;;;;;;;16.50;11.57;;;;;;;;;;5093036;28;20502;-63
2023/09/27 10:50:08;;;;;;;14.77;9.85;;;;;;;;;;5079935;28;20039;-63
2023/09/27 10:52:36;;;;;;;16.33;10.25;;;;;;;;;;5073319;28;20025;-63
2023/09/27 10:55:11;;;;;;;16.98;10.50;;;;;;;;;;5083436;28;20058;-64
2023/09/27 10:57:38;;;;;;;14.80;9.35;;;;;;;;;;5080091;28;20017;-61
2023/09/27 11:00:10;;;;;;;16.80;9.65;;;;;;;;;;5073716;28;20071;-61
2023/09/27 11:02:36;;;;;;;13.95;9.02;;;;;;;;;;5073341;28;20077;-62
2023/09/27 11:05:01;;;;;;;14.00;8.88;;;;;;;;;;5073170;28;20120;-61
2023/09/27 11:07:46;;;;;;;12.50;8.27;;;;;;;;;;5076800;28;20021;-60
2023/09/27 11:10:16;;;;;;;11.63;8.65;;;;;;;;;;5080795;28;20016;-60
2023/09/27 11:12:41;;;;;;;11.20;8.50;;;;;;;;;;5092583;28;20103;-63
2023/09/27 11:15:06;;;;;;;12.75;8.88;;;;;;;;;;5088879;28;20066;-62
2023/09/27 11:17:32;;;;;;;14.52;9.57;;;;;;;;;;5088526;28;20024;-62
2023/09/27 11:20:09;;;;;;;15.20;10.27;;;;;;;;;;5082438;28;20099;-63
2023/09/27 11:22:35;;;;;;;15.70;10.30;;;;;;;;;;5092417;28;20016;-61
2023/09/27 11:25:00;;;;;;;15.75;9.75;;;;;;;;;;5090686;28;20047;-61
2023/09/27 11:27:25;;;;;;;17.73;10.00;;;;;;;;;;5073530;28;20089;-62
2023/09/27 11:29:52;;;;;;;16.38;10.40;;;;;;;;;;5074473;28;20082;-63
2023/09/27 11:32:17;;;;;;;17.73;10.55;;;;;;;;;;5072596;28;20473;-62
2023/09/27 11:34:52;;;;;;;16.48;10.35;;;;;;;;;;5073523;28;20044;-67
2023/09/27 11:37:17;;;;;;;14.60;9.73;;;;;;;;;;5078773;28;20393;-67
2023/09/27 11:39:52;;;;;;;14.73;10.60;;;;;;;;;;5076494;28;20012;-67
2023/09/27 11:42:21;;;;;;;14.43;9.70;;;;;;;;;;5078504;28;20432;-67
2023/09/27 11:44:59;;;;;;;19.58;10.30;;;;;;;;;;5073166;28;20388;-66
2023/09/27 11:47:24;;;;;;;14.27;10.50;;;;;;;;;;5083545;28;20480;-67
2023/09/27 11:49:50;;;;;;;18.23;10.88;;;;;;;;;;5078866;28;20084;-67
2023/09/27 11:52:15;;;;;;;19.45;11.27;;;;;;;;;;5081898;28;20082;-67
2023/09/27 11:54:45;;;;;;;20.70;14.93;;;;;;;;;;5076224;28;20022;-67
2023/09/27 11:57:10;;;;;;;13.85;10.13;;;;;;;;;;5091153;28;20514;-66
2023/09/27 11:59:37;;;;;;;13.07;10.15;;;;;;;;;;5080810;28;20044;-67
2023/09/27 12:02:03;;;;;;;19.88;10.32;;;;;;;;;;5076851;28;20464;-67
2023/09/27 12:04:28;;;;;;;14.82;10.68;;;;;;;;;;5075060;28;20098;-66
2023/09/27 12:06:54;;;;;;;15.68;10.00;;;;;;;;;;5072801;28;20500;-67
2023/09/27 12:09:19;;;;;;;14.10;9.95;;;;;;;;;;5083310;28;20720;-66
2023/09/27 12:11:44;;;;;;;18.80;10.48;;;;;;;;;;5079528;28;20012;-67
2023/09/27 12:14:09;;;;;;;15.57;10.50;;;;;;;;;;5085969;28;20380;-67
2023/09/27 12:16:35;;;;;;;15.35;10.32;;;;;;;;;;5080721;28;20368;-67
2023/09/27 12:19:00;;;;;;;18.67;9.43;;;;;;;;;;5088355;28;20107;-66
2023/09/27 12:21:26;;;;;;;15.40;9.90;;;;;;;;;;5077711;28;20013;-66
2023/09/27 12:23:51;;;;;;;12.75;9.73;;;;;;;;;;5088094;28;20024;-67
2023/09/27 12:26:16;;;;;;;16.90;9.82;;;;;;;;;;5075603;28;20021;-67
2023/09/27 12:28:42;;;;;;;15.75;10.00;;;;;;;;;;5072411;28;20051;-66
2023/09/27 12:31:07;;;;;;;13.13;9.13;;;;;;;;;;5074460;28;20029;-67
2023/09/27 12:33:34;;;;;;;16.40;9.60;;;;;;;;;;5094465;28;20031;-67
2023/09/27 12:36:00;;;;;;;14.10;9.43;;;;;;;;;;5095535;28;20032;-67
2023/09/27 12:38:26;;;;;;;13.27;9.07;;;;;;;;;;5076525;28;20495;-67
2023/09/27 12:40:51;;;;;;;14.05;8.70;;;;;;;;;;5077328;28;20113;-66
2023/09/27 12:43:16;;;;;;;12.90;9.23;;;;;;;;;;5092315;28;20087;-66
2023/09/27 12:45:42;;;;;;;13.90;9.00;;;;;;;;;;5096008;28;20056;-66
2023/09/27 12:48:07;;;;;;;14.25;8.95;;;;;;;;;;5094891;28;20028;-66
2023/09/27 12:50:32;;;;;;;12.20;9.50;;;;;;;;;;5095864;28;20024;-67
2023/09/27 12:53:00;;;;;;;14.10;8.93;;;;;;;;;;5093888;28;20024;-66
2023/09/27 12:55:25;;;;;;;12.48;8.65;;;;;;;;;;5095203;28;20034;-66
2023/09/27 12:57:50;;;;;;;12.85;8.38;;;;;;;;;;5094316;28;20019;-66
2023/09/27 13:00:19;;;;;;;15.80;8.65;;;;;;;;;;5095395;28;20028;-66
2023/09/27 13:02:44;;;;;;;12.57;8.27;;;;;;;;;;5094495;28;20106;-65
2023/09/27 13:05:09;;;;;;;11.18;7.57;;;;;;;;;;5093305;28;20063;-66
2023/09/27 13:07:34;;;;;;;11.68;7.43;;;;;;;;;;5091009;28;20020;-65
2023/09/27 13:10:01;;;;;;;11.57;7.50;;;;;;;;;;5075900;28;20021;-66
2023/09/27 13:12:26;;;;;;;10.25;7.25;;;;;;;;;;5081191;28;20028;-65
2023/09/27 13:14:51;;;;;;;12.90;6.93;;;;;;;;;;5084762;28;20017;-66
2023/09/27 13:17:16;;;;;;;10.88;7.20;;;;;;;;;;5075784;28;20099;-66
2023/09/27 13:19:42;;;;;;;13.40;6.60;;;;;;;;;;5083237;28;20432;-66
2023/09/27 13:22:07;;;;;;;11.45;7.15;;;;;;;;;;5075473;28;20024;-66
2023/09/27 13:24:32;;;;;;;11.15;6.60;;;;;;;;;;5085101;28;20375;-65
2023/09/27 13:26:57;;;;;;;10.10;7.32;;;;;;;;;;5094265;28;20107;-65
2023/09/27 13:29:23;;;;;;;11.93;7.10;;;;;;;;;;5082275;28;20046;-65
2023/09/27 13:31:49;;;;;;;11.15;6.95;;;;;;;;;;5095464;28;20024;-66
2023/09/27 13:34:15;;;;;;;14.15;6.80;;;;;;;;;;5085672;28;20483;-65
2023/09/27 13:36:41;;;;;;;9.38;6.38;;;;;;;;;;5075129;28;20020;-65
2023/09/27 13:39:12;;;;;;;10.90;5.70;;;;;;;;;;5079156;28;20019;-65
2023/09/27 13:41:44;;;;;;;9.93;5.45;;;;;;;;;;5095644;28;20472;-65
2023/09/27 13:44:10;;;;;;;7.50;5.00;;;;;;;;;;5094835;28;20016;-65
2023/09/27 13:46:36;;;;;;;6.78;4.60;;;;;;;;;;5099035;28;20502;-66
2023/09/27 13:49:01;;;;;;;7.18;4.30;;;;;;;;;;5114163;28;20019;-65
2023/09/27 13:51:26;;;;;;;10.95;5.20;;;;;;;;;;5092071;28;20027;-65
2023/09/27 13:53:52;;;;;;;9.85;6.18;;;;;;;;;;5076405;28;20029;-65
2023/09/27 13:56:17;;;;;;;11.68;7.50;;;;;;;;;;5091456;28;20099;-61
2023/09/27 13:58:42;;;;;;;14.93;6.45;;;;;;;;;;5092723;28;20475;-61
2023/09/27 14:01:08;;;;;;;11.57;6.95;;;;;;;;;;5075517;28;20066;-61
2023/09/27 14:03:33;;;;;;;15.70;6.95;;;;;;;;;;5074139;28;20059;-61
2023/09/27 14:05:59;;;;;;;10.00;6.78;;;;;;;;;;5074829;28;20182;-61
2023/09/27 14:08:24;;;;;;;10.75;6.15;;;;;;;;;;5077905;28;20062;-61
2023/09/27 14:10:49;;;;;;;11.60;5.57;;;;;;;;;;5073724;28;20020;-61
2023/09/27 14:13:14;;;;;;;7.50;4.03;;;;;;;;;;5074426;28;20373;-63
2023/09/27 14:15:40;;;;;;;6.90;3.60;;;;;;;;;;5090005;28;20122;-61
2023/09/27 14:18:05;;;;;;;7.75;3.78;;;;;;;;;;5093057;28;20035;-62
2023/09/27 14:20:31;;;;;;;9.88;3.78;;;;;;;;;;5091819;28;20100;-63